createdAt,value
2019-03-27T00:00:07.347Z,4.7
2019-03-27T00:00:57.314Z,4.6
2019-03-27T00:01:49.163Z,4.6
2019-03-27T00:02:37.576Z,4.6
2019-03-27T00:03:27.274Z,4.6
2019-03-27T00:04:17.344Z,4.6
2019-03-27T00:05:07.803Z,4.6
2019-03-27T00:05:57.395Z,4.6
2019-03-27T00:06:47.849Z,4.5
2019-03-27T00:07:37.421Z,4.5
2019-03-27T00:08:27.380Z,4.5
2019-03-27T00:09:17.463Z,4.5
2019-03-27T00:10:07.616Z,4.5
2019-03-27T00:10:57.557Z,4.5
2019-03-27T00:11:48.597Z,4.5
2019-03-27T00:12:37.366Z,4.5
2019-03-27T00:13:27.810Z,4.5
2019-03-27T00:14:17.393Z,4.5
2019-03-27T00:15:12.957Z,4.5
2019-03-27T00:15:57.307Z,4.4
2019-03-27T00:16:47.363Z,4.4
2019-03-27T00:17:37.950Z,4.4
2019-03-27T00:18:27.917Z,4.4
2019-03-27T00:19:17.575Z,4.4
2019-03-27T00:20:07.560Z,4.4
2019-03-27T00:20:57.700Z,4.3
2019-03-27T00:21:47.643Z,4.3
2019-03-27T00:22:38.130Z,4.3
2019-03-27T00:23:27.593Z,4.3
2019-03-27T00:24:17.592Z,4.3
2019-03-27T00:25:07.611Z,4.3
2019-03-27T00:25:57.644Z,4.3
2019-03-27T00:26:47.565Z,4.2
2019-03-27T00:27:37.729Z,4.2
2019-03-27T00:28:27.979Z,4.2
2019-03-27T00:29:17.864Z,4.2
2019-03-27T00:30:07.598Z,4.2
2019-03-27T00:30:57.773Z,4.2
2019-03-27T00:31:48.175Z,4.1
2019-03-27T00:32:41.043Z,4.1
2019-03-27T00:33:27.591Z,4.1
2019-03-27T00:34:17.543Z,4.1
2019-03-27T00:35:07.583Z,4.1
2019-03-27T00:35:58.461Z,4.1
2019-03-27T00:36:47.634Z,4.1
2019-03-27T00:37:41.428Z,4
2019-03-27T00:38:27.600Z,4
2019-03-27T00:39:17.639Z,4
2019-03-27T00:40:07.809Z,4
2019-03-27T00:40:57.643Z,3.9
2019-03-27T00:41:47.832Z,3.9
2019-03-27T00:42:37.822Z,3.9
2019-03-27T00:43:27.913Z,3.9
2019-03-27T00:44:18.016Z,3.8
2019-03-27T00:45:07.931Z,3.8
2019-03-27T00:45:57.956Z,3.8
2019-03-27T00:46:47.667Z,3.8
2019-03-27T00:47:37.688Z,3.8
2019-03-27T00:48:27.602Z,3.7
2019-03-27T00:49:17.575Z,3.7
2019-03-27T00:50:07.619Z,3.7
2019-03-27T00:50:59.858Z,3.7
2019-03-27T00:51:48.149Z,3.7
2019-03-27T00:52:38.663Z,3.6
2019-03-27T00:53:28.208Z,3.6
2019-03-27T00:54:17.956Z,3.6
2019-03-27T00:55:09.115Z,3.6
2019-03-27T00:55:57.719Z,3.5
2019-03-27T00:56:47.653Z,3.5
2019-03-27T00:57:37.747Z,3.5
2019-03-27T00:58:27.766Z,3.5
2019-03-27T00:59:19.254Z,3.5
2019-03-27T01:00:07.993Z,3.4
2019-03-27T01:00:57.638Z,3.4
2019-03-27T01:01:48.188Z,3.4
2019-03-27T01:02:39.017Z,3.4
2019-03-27T01:03:27.918Z,3.4
2019-03-27T01:04:17.761Z,3.3
2019-03-27T01:05:07.636Z,3.3
2019-03-27T01:05:58.290Z,3.3
2019-03-27T01:06:50.799Z,3.3
2019-03-27T01:07:37.622Z,3.2
2019-03-27T01:08:27.597Z,3.2
2019-03-27T01:09:17.591Z,3.2
2019-03-27T01:10:07.742Z,3.2
2019-03-27T01:10:57.609Z,3.2
2019-03-27T01:11:48.825Z,3.1
2019-03-27T01:12:38.231Z,3.1
2019-03-27T01:13:27.652Z,3.1
2019-03-27T01:14:17.584Z,3.1
2019-03-27T01:15:07.590Z,3
2019-03-27T01:15:58.192Z,3
2019-03-27T01:16:51.920Z,3
2019-03-27T01:17:37.639Z,3
2019-03-27T01:18:28.453Z,3
2019-03-27T01:19:17.678Z,3
2019-03-27T01:20:08.234Z,2.9
2019-03-27T01:20:57.698Z,2.9
2019-03-27T01:21:48.834Z,2.9
2019-03-27T01:22:38.055Z,2.9
2019-03-27T01:23:27.606Z,2.8
2019-03-27T01:24:17.605Z,2.8
2019-03-27T01:25:07.653Z,2.8
2019-03-27T01:26:00.093Z,2.8
2019-03-27T01:26:47.604Z,2.8
2019-03-27T01:27:38.173Z,2.7
2019-03-27T01:28:27.677Z,2.7
2019-03-27T01:29:17.664Z,2.7
2019-03-27T01:30:08.183Z,2.7
2019-03-27T01:30:57.636Z,2.7
2019-03-27T01:31:47.645Z,2.7
2019-03-27T01:32:38.796Z,2.7
2019-03-27T01:33:28.154Z,2.6
2019-03-27T01:34:20.872Z,2.6
2019-03-27T01:35:08.329Z,2.6
2019-03-27T01:35:59.615Z,2.6
2019-03-27T01:36:48.680Z,2.5
2019-03-27T01:37:37.932Z,2.5
2019-03-27T01:38:28.949Z,2.5
2019-03-27T01:39:17.898Z,2.5
2019-03-27T01:40:10.353Z,2.5
2019-03-27T01:40:59.522Z,2.5
2019-03-27T01:41:47.929Z,2.4
2019-03-27T01:42:37.894Z,2.4
2019-03-27T01:43:27.898Z,2.4
2019-03-27T01:44:17.894Z,2.3
2019-03-27T01:45:10.631Z,2.3
2019-03-27T01:45:58.901Z,2.3
2019-03-27T01:46:48.482Z,2.3
2019-03-27T01:47:37.919Z,2.3
2019-03-27T01:48:27.898Z,2.3
2019-03-27T01:49:18.603Z,2.3
2019-03-27T01:50:09.219Z,2.3
2019-03-27T01:51:00.834Z,2.2
2019-03-27T01:51:47.898Z,2.2
2019-03-27T01:52:38.220Z,2.2
2019-03-27T01:53:28.492Z,2.2
2019-03-27T01:54:18.419Z,2.2
2019-03-27T01:55:08.437Z,2.1
2019-03-27T01:56:05.894Z,2.1
2019-03-27T01:56:48.595Z,2.1
2019-03-27T01:57:38.313Z,2.1
2019-03-27T01:58:30.274Z,2.1
2019-03-27T01:59:17.869Z,2
2019-03-27T02:00:12.329Z,2
2019-03-27T02:00:58.364Z,2
2019-03-27T02:01:47.971Z,2
2019-03-27T02:02:37.993Z,2
2019-03-27T02:03:27.919Z,2
2019-03-27T02:04:20.348Z,2
2019-03-27T02:05:07.870Z,1.9
2019-03-27T02:06:02.144Z,1.9
2019-03-27T02:06:50.731Z,1.9
2019-03-27T02:07:37.846Z,1.9
2019-03-27T02:08:27.945Z,1.9
2019-03-27T02:09:17.954Z,1.9
2019-03-27T02:10:10.576Z,1.9
2019-03-27T02:10:57.923Z,1.8
2019-03-27T02:11:48.116Z,1.8
2019-03-27T02:12:37.941Z,1.8
2019-03-27T02:13:27.924Z,1.8
2019-03-27T02:14:18.244Z,1.8
2019-03-27T02:15:11.459Z,1.7
2019-03-27T02:16:06.511Z,1.7
2019-03-27T02:16:47.885Z,1.7
2019-03-27T02:17:37.913Z,1.7
2019-03-27T02:18:29.454Z,1.7
2019-03-27T02:19:18.193Z,1.7
2019-03-27T02:20:10.134Z,1.7
2019-03-27T02:20:58.691Z,1.6
2019-03-27T02:21:47.928Z,1.6
2019-03-27T02:22:38.568Z,1.6
2019-03-27T02:23:28.236Z,1.6
2019-03-27T02:24:19.890Z,1.6
2019-03-27T02:25:13.004Z,1.5
2019-03-27T02:25:58.005Z,1.5
2019-03-27T02:26:47.932Z,1.5
2019-03-27T02:27:38.562Z,1.5
2019-03-27T02:28:32.794Z,1.5
2019-03-27T02:29:21.989Z,1.5
2019-03-27T02:30:07.966Z,1.5
2019-03-27T02:30:57.909Z,1.5
2019-03-27T02:31:48.287Z,1.5
2019-03-27T02:33:37.308Z,1.5
2019-03-27T02:34:17.917Z,1.4
2019-03-27T02:35:07.921Z,1.4
2019-03-27T02:35:57.904Z,1.4
2019-03-27T02:36:47.895Z,1.4
2019-03-27T02:37:37.980Z,1.4
2019-03-27T02:38:28.026Z,1.4
2019-03-27T02:39:17.894Z,1.4
2019-03-27T02:40:07.920Z,1.4
2019-03-27T02:40:57.912Z,1.4
2019-03-27T02:41:48.062Z,1.4
2019-03-27T02:42:38.740Z,1.4
2019-03-27T02:43:28.754Z,1.4
2019-03-27T02:44:18.746Z,1.4
2019-03-27T02:45:08.742Z,1.4
2019-03-27T02:45:58.711Z,1.4
2019-03-27T02:46:48.721Z,1.4
2019-03-27T02:47:38.747Z,1.4
2019-03-27T02:48:28.725Z,1.4
2019-03-27T02:49:18.698Z,1.4
2019-03-27T02:50:08.711Z,1.3
2019-03-27T02:50:58.693Z,1.4
2019-03-27T02:51:48.849Z,1.4
2019-03-27T02:52:38.749Z,1.3
2019-03-27T02:53:28.730Z,1.4
2019-03-27T02:54:18.749Z,1.4
2019-03-27T02:55:08.697Z,1.3
2019-03-27T02:55:58.733Z,1.3
2019-03-27T02:56:48.707Z,1.3
2019-03-27T02:57:38.738Z,1.3
2019-03-27T02:58:28.848Z,1.3
2019-03-27T02:59:18.816Z,1.3
2019-03-27T03:00:08.706Z,1.3
2019-03-27T03:00:58.709Z,1.3
2019-03-27T03:01:48.738Z,1.3
2019-03-27T03:02:38.754Z,1.3
2019-03-27T03:03:28.688Z,1.3
2019-03-27T03:04:18.808Z,1.3
2019-03-27T03:05:08.730Z,1.3
2019-03-27T03:05:58.724Z,1.3
2019-03-27T03:06:48.706Z,1.3
2019-03-27T03:07:38.746Z,1.3
2019-03-27T03:08:28.743Z,1.3
2019-03-27T03:09:19.441Z,1.3
2019-03-27T03:10:08.747Z,1.3
2019-03-27T03:10:58.745Z,1.3
2019-03-27T03:11:48.757Z,1.3
2019-03-27T03:12:38.707Z,1.3
2019-03-27T03:13:28.793Z,1.3
2019-03-27T03:14:20.492Z,1.3
2019-03-27T03:15:08.753Z,1.3
2019-03-27T03:15:58.785Z,1.3
2019-03-27T03:16:48.838Z,1.3
2019-03-27T03:17:38.744Z,1.3
2019-03-27T03:18:28.780Z,1.3
2019-03-27T03:19:18.770Z,1.3
2019-03-27T03:20:08.765Z,1.3
2019-03-27T03:20:58.749Z,1.3
2019-03-27T03:21:48.837Z,1.2
2019-03-27T03:22:38.719Z,1.3
2019-03-27T03:23:28.728Z,1.2
2019-03-27T03:24:18.778Z,1.3
2019-03-27T03:25:08.764Z,1.2
2019-03-27T03:25:58.789Z,1.2
2019-03-27T03:26:50.720Z,1.2
2019-03-27T03:27:38.823Z,1.2
2019-03-27T03:28:28.789Z,1.2
2019-03-27T03:29:18.750Z,1.2
2019-03-27T03:30:08.781Z,1.3
2019-03-27T03:30:58.746Z,1.2
2019-03-27T03:31:48.747Z,1.2
2019-03-27T03:32:38.764Z,1.2
2019-03-27T03:33:28.822Z,1.2
2019-03-27T03:34:18.801Z,1.2
2019-03-27T03:35:08.884Z,1.2
2019-03-27T03:35:58.745Z,1.2
2019-03-27T03:36:48.753Z,1.2
2019-03-27T03:37:38.761Z,1.2
2019-03-27T03:38:28.723Z,1.2
2019-03-27T03:39:18.723Z,1.2
2019-03-27T03:40:08.783Z,1.2
2019-03-27T03:40:58.769Z,1.2
2019-03-27T03:41:48.747Z,1.2
2019-03-27T03:42:38.725Z,1.2
2019-03-27T03:43:28.898Z,1.2
2019-03-27T03:44:18.739Z,1.2
2019-03-27T03:45:08.706Z,1.2
2019-03-27T03:45:58.780Z,1.2
2019-03-27T03:46:59.231Z,1.2
2019-03-27T03:47:38.767Z,1.2
2019-03-27T03:48:28.760Z,1.2
2019-03-27T03:49:18.756Z,1.2
2019-03-27T03:50:08.796Z,1.2
2019-03-27T03:50:58.777Z,1.2
2019-03-27T03:51:48.762Z,1.2
2019-03-27T03:52:38.917Z,1.2
2019-03-27T03:53:28.721Z,1.2
2019-03-27T03:54:18.738Z,1.2
2019-03-27T03:55:08.780Z,1.2
2019-03-27T03:55:58.731Z,1.2
2019-03-27T03:56:48.790Z,1.2
2019-03-27T03:57:38.951Z,1.2
2019-03-27T03:58:28.805Z,1.2
2019-03-27T03:59:18.766Z,1.2
2019-03-27T04:00:08.756Z,1.2
2019-03-27T04:00:58.747Z,1.2
2019-03-27T04:01:48.851Z,1.2
2019-03-27T04:02:38.814Z,1.2
2019-03-27T04:03:28.966Z,1.2
2019-03-27T04:04:18.914Z,1.2
2019-03-27T04:05:08.879Z,1.2
2019-03-27T04:05:58.780Z,1.2
2019-03-27T04:06:48.732Z,1.2
2019-03-27T04:07:38.792Z,1.2
2019-03-27T04:08:29.103Z,1.2
2019-03-27T04:09:18.896Z,1.2
2019-03-27T04:10:08.803Z,1.2
2019-03-27T04:10:58.765Z,1.2
2019-03-27T04:11:48.734Z,1.2
2019-03-27T04:12:38.765Z,1.2
2019-03-27T04:13:29.585Z,1.2
2019-03-27T04:14:19.026Z,1.2
2019-03-27T04:15:08.784Z,1.2
2019-03-27T04:15:58.753Z,1.2
2019-03-27T04:16:48.763Z,1.2
2019-03-27T04:17:38.786Z,1.2
2019-03-27T04:18:28.926Z,1.3
2019-03-27T04:19:19.172Z,1.3
2019-03-27T04:20:08.815Z,1.3
2019-03-27T04:20:58.758Z,1.3
2019-03-27T04:21:48.822Z,1.3
2019-03-27T04:22:38.772Z,1.3
2019-03-27T04:23:28.794Z,1.3
2019-03-27T04:24:19.091Z,1.3
2019-03-27T04:25:08.820Z,1.3
2019-03-27T04:26:09.424Z,1.3
2019-03-27T04:26:48.780Z,1.3
2019-03-27T04:27:38.792Z,1.3
2019-03-27T04:28:28.875Z,1.3
2019-03-27T04:29:19.746Z,1.3
2019-03-27T04:30:08.755Z,1.3
2019-03-27T04:30:58.800Z,1.3
2019-03-27T04:31:48.789Z,1.3
2019-03-27T04:32:38.825Z,1.3
2019-03-27T04:33:28.834Z,1.3
2019-03-27T04:34:18.783Z,1.3
2019-03-27T04:35:08.795Z,1.3
2019-03-27T04:35:58.801Z,1.3
2019-03-27T04:36:48.764Z,1.3
2019-03-27T04:37:38.777Z,1.3
2019-03-27T04:38:28.828Z,1.4
2019-03-27T04:39:19.472Z,1.4
2019-03-27T04:40:08.792Z,1.4
2019-03-27T04:40:58.770Z,1.4
2019-03-27T04:41:48.803Z,1.4
2019-03-27T04:42:38.761Z,1.4
2019-03-27T04:43:28.838Z,1.4
2019-03-27T04:44:18.816Z,1.4
2019-03-27T04:45:08.783Z,1.4
2019-03-27T04:45:58.852Z,1.4
2019-03-27T04:46:48.793Z,1.4
2019-03-27T04:47:38.797Z,1.4
2019-03-27T04:48:28.856Z,1.4
2019-03-27T04:49:20.142Z,1.4
2019-03-27T04:50:08.775Z,1.4
2019-03-27T04:50:58.827Z,1.5
2019-03-27T04:51:48.789Z,1.5
2019-03-27T04:52:38.800Z,1.5
2019-03-27T04:53:28.869Z,1.5
2019-03-27T04:54:18.774Z,1.5
2019-03-27T04:55:08.827Z,1.5
2019-03-27T04:55:58.849Z,1.5
2019-03-27T04:56:48.820Z,1.5
2019-03-27T04:57:39.291Z,1.5
2019-03-27T04:58:28.836Z,1.5
2019-03-27T04:59:19.179Z,1.5
2019-03-27T05:00:08.943Z,1.5
2019-03-27T05:00:58.888Z,1.6
2019-03-27T05:01:48.983Z,1.6
2019-03-27T05:02:38.895Z,1.6
2019-03-27T05:03:29.061Z,1.6
2019-03-27T05:04:18.870Z,1.6
2019-03-27T05:05:08.921Z,1.6
2019-03-27T05:05:59.055Z,1.6
2019-03-27T05:06:49.080Z,1.6
2019-03-27T05:07:39.931Z,1.6
2019-03-27T05:08:29.104Z,1.6
2019-03-27T05:09:18.825Z,1.6
2019-03-27T05:10:08.796Z,1.6
2019-03-27T05:10:58.767Z,1.6
2019-03-27T05:11:48.799Z,1.6
2019-03-27T05:12:39.291Z,1.7
2019-03-27T05:13:28.914Z,1.7
2019-03-27T05:14:18.796Z,1.7
2019-03-27T05:15:08.853Z,1.7
2019-03-27T05:15:58.841Z,1.7
2019-03-27T05:16:48.832Z,1.7
2019-03-27T05:17:45.487Z,1.7
2019-03-27T05:18:28.836Z,1.7
2019-03-27T05:19:19.040Z,1.7
2019-03-27T05:20:08.793Z,1.7
2019-03-27T05:20:58.786Z,1.8
2019-03-27T05:21:48.808Z,1.8
2019-03-27T05:22:39.758Z,1.8
2019-03-27T05:23:28.838Z,1.8
2019-03-27T05:24:18.859Z,1.8
2019-03-27T05:25:08.795Z,1.8
2019-03-27T05:25:58.784Z,1.8
2019-03-27T05:26:48.823Z,1.8
2019-03-27T05:27:41.845Z,1.8
2019-03-27T05:28:28.984Z,1.8
2019-03-27T05:29:19.120Z,1.8
2019-03-27T05:30:08.845Z,1.9
2019-03-27T05:30:58.847Z,1.9
2019-03-27T05:31:48.932Z,1.9
2019-03-27T05:32:38.891Z,1.9
2019-03-27T05:33:28.908Z,1.9
2019-03-27T05:34:18.792Z,1.9
2019-03-27T05:35:09.949Z,1.9
2019-03-27T05:35:59.780Z,1.9
2019-03-27T05:36:49.672Z,1.9
2019-03-27T05:37:39.746Z,1.9
2019-03-27T05:38:29.782Z,1.9
2019-03-27T05:39:22.288Z,1.9
2019-03-27T05:40:09.799Z,2
2019-03-27T05:41:00.630Z,2
2019-03-27T05:41:50.879Z,2
2019-03-27T05:42:40.534Z,2
2019-03-27T05:43:33.163Z,2
2019-03-27T05:44:19.765Z,2
2019-03-27T05:45:09.702Z,2
2019-03-27T05:45:59.674Z,2
2019-03-27T05:46:50.700Z,2
2019-03-27T05:47:39.681Z,2
2019-03-27T05:48:29.801Z,2.1
2019-03-27T05:49:19.723Z,2.1
2019-03-27T05:50:09.710Z,2.1
2019-03-27T05:50:59.806Z,2.1
2019-03-27T05:51:49.962Z,2.1
2019-03-27T05:52:39.916Z,2.1
2019-03-27T05:53:29.643Z,2.1
2019-03-27T05:54:19.744Z,2.1
2019-03-27T05:55:09.892Z,2.1
2019-03-27T05:55:59.725Z,2.1
2019-03-27T05:56:49.713Z,2.1
2019-03-27T05:57:39.658Z,2.2
2019-03-27T05:58:29.694Z,2.2
2019-03-27T05:59:19.731Z,2.2
2019-03-27T06:00:11.103Z,2.2
2019-03-27T06:01:03.153Z,2.2
2019-03-27T06:01:53.077Z,2.2
2019-03-27T06:04:13.505Z,2.2
2019-03-27T06:05:08.271Z,2.3
2019-03-27T06:05:58.947Z,2.3
2019-03-27T06:06:49.302Z,2.3
2019-03-27T06:07:38.925Z,2.3
2019-03-27T06:08:28.996Z,2.3
2019-03-27T06:09:18.990Z,2.3
2019-03-27T06:10:09.054Z,2.3
2019-03-27T06:10:58.961Z,2.3
2019-03-27T06:11:49.862Z,2.3
2019-03-27T06:12:38.940Z,2.3
2019-03-27T06:13:28.978Z,2.4
2019-03-27T06:14:18.977Z,2.4
2019-03-27T06:15:08.988Z,2.4
2019-03-27T06:15:59.743Z,2.4
2019-03-27T06:16:50.646Z,2.4
2019-03-27T06:17:39.697Z,2.4
2019-03-27T06:18:29.715Z,2.4
2019-03-27T06:19:19.705Z,2.5
2019-03-27T06:20:09.700Z,2.5
2019-03-27T06:20:59.683Z,2.5
2019-03-27T06:21:51.332Z,2.5
2019-03-27T06:22:40.693Z,2.5
2019-03-27T06:23:30.596Z,2.5
2019-03-27T06:24:20.675Z,2.5
2019-03-27T06:25:10.605Z,2.6
2019-03-27T06:26:00.673Z,2.6
2019-03-27T06:26:52.322Z,2.6
2019-03-27T06:27:40.643Z,2.6
2019-03-27T06:28:30.601Z,2.6
2019-03-27T06:29:20.621Z,2.7
2019-03-27T06:30:10.682Z,2.7
2019-03-27T06:31:00.684Z,2.7
2019-03-27T06:31:53.253Z,2.7
2019-03-27T06:32:40.621Z,2.7
2019-03-27T06:33:30.679Z,2.7
2019-03-27T06:34:20.604Z,2.7
2019-03-27T06:35:10.636Z,2.7
2019-03-27T06:36:00.683Z,2.7
2019-03-27T06:36:53.003Z,2.7
2019-03-27T06:37:40.622Z,2.7
2019-03-27T06:38:30.582Z,2.8
2019-03-27T06:39:20.625Z,2.8
2019-03-27T06:40:10.611Z,2.8
2019-03-27T06:41:00.684Z,2.8
2019-03-27T06:41:50.726Z,2.8
2019-03-27T06:42:40.624Z,2.8
2019-03-27T06:43:30.674Z,2.8
2019-03-27T06:44:20.594Z,2.9
2019-03-27T06:45:10.633Z,2.9
2019-03-27T06:46:00.750Z,2.9
2019-03-27T06:46:50.611Z,2.9
2019-03-27T06:47:40.587Z,2.9
2019-03-27T06:48:30.646Z,3
2019-03-27T06:49:20.599Z,3
2019-03-27T06:50:10.636Z,3
2019-03-27T06:51:00.698Z,3
2019-03-27T06:51:50.596Z,3
2019-03-27T06:52:40.624Z,3
2019-03-27T06:53:30.616Z,3.1
2019-03-27T06:54:20.660Z,3.1
2019-03-27T06:55:10.662Z,3.1
2019-03-27T06:56:00.694Z,3.1
2019-03-27T06:56:50.668Z,3.1
2019-03-27T06:57:40.639Z,3.2
2019-03-27T06:58:30.673Z,3.2
2019-03-27T06:59:20.641Z,3.2
2019-03-27T07:00:10.609Z,3.2
2019-03-27T07:01:00.703Z,3.2
2019-03-27T07:01:50.630Z,3.3
2019-03-27T07:02:40.678Z,3.3
2019-03-27T07:03:30.750Z,3.3
2019-03-27T07:04:20.666Z,3.3
2019-03-27T07:05:10.711Z,3.3
2019-03-27T07:06:00.709Z,3.4
2019-03-27T07:06:50.660Z,3.4
2019-03-27T07:07:40.628Z,3.4
2019-03-27T07:08:30.631Z,3.4
2019-03-27T07:09:20.634Z,3.4
2019-03-27T07:10:10.655Z,3.5
2019-03-27T07:11:00.963Z,3.5
2019-03-27T07:11:50.743Z,3.5
2019-03-27T07:12:41.153Z,3.5
2019-03-27T07:13:30.694Z,3.6
2019-03-27T07:14:20.619Z,3.6
2019-03-27T07:15:11.412Z,3.6
2019-03-27T07:16:00.826Z,3.6
2019-03-27T07:16:50.704Z,3.6
2019-03-27T07:17:40.624Z,3.7
2019-03-27T07:18:39.736Z,3.7
2019-03-27T07:19:21.274Z,3.7
2019-03-27T07:20:11.307Z,3.8
2019-03-27T07:21:01.434Z,3.8
2019-03-27T07:21:51.314Z,3.9
2019-03-27T07:22:41.310Z,3.9
2019-03-27T07:23:31.287Z,3.9
2019-03-27T07:24:21.852Z,4
2019-03-27T07:25:11.330Z,4
2019-03-27T07:26:01.542Z,4.1
2019-03-27T07:26:51.298Z,4.1
2019-03-27T07:27:41.371Z,4.1
2019-03-27T07:28:31.341Z,4.1
2019-03-27T07:29:21.374Z,4.1
2019-03-27T07:30:11.307Z,4.1
2019-03-27T07:31:03.246Z,4.2
2019-03-27T07:31:51.296Z,4.2
2019-03-27T07:32:41.278Z,4.2
2019-03-27T07:33:31.323Z,4.2
2019-03-27T07:34:21.345Z,4.2
2019-03-27T07:35:11.240Z,4.2
2019-03-27T07:36:02.584Z,4.2
2019-03-27T07:36:51.286Z,4.2
2019-03-27T07:37:41.304Z,4.3
2019-03-27T07:38:31.333Z,4.3
2019-03-27T07:39:24.392Z,4.3
2019-03-27T07:40:11.371Z,4.3
2019-03-27T07:41:03.913Z,4.3
2019-03-27T07:41:51.359Z,4.3
2019-03-27T07:42:41.305Z,4.4
2019-03-27T07:43:34.670Z,4.4
2019-03-27T07:44:21.342Z,4.4
2019-03-27T07:45:11.644Z,4.4
2019-03-27T07:46:01.332Z,4.4
2019-03-27T07:46:51.336Z,4.5
2019-03-27T07:47:41.266Z,4.5
2019-03-27T07:48:31.321Z,4.5
2019-03-27T07:49:21.351Z,4.5
2019-03-27T07:51:17.755Z,4.6
2019-03-27T07:52:08.064Z,4.6
2019-03-27T07:52:58.536Z,4.7
2019-03-27T07:53:48.751Z,4.7
2019-03-27T07:54:49.290Z,4.7
2019-03-27T07:55:44.280Z,4.7
2019-03-27T07:56:35.830Z,4.8
2019-03-27T07:57:30.792Z,4.8
2019-03-27T08:01:48.967Z,4.9
2019-03-27T08:05:14.527Z,5
2019-03-27T08:06:09.309Z,5.1
2019-03-27T08:09:05.078Z,5.2
2019-03-27T08:09:54.765Z,5.2
2019-03-27T08:11:54.141Z,5.2
2019-03-27T08:12:44.151Z,5.2
2019-03-27T08:13:40.032Z,5.3
2019-03-27T08:16:15.005Z,5.4
2019-03-27T08:20:42.904Z,5.6
2019-03-27T08:22:45.100Z,5.7
2019-03-27T08:23:36.230Z,5.7
2019-03-27T08:24:28.083Z,5.7
2019-03-27T08:25:19.595Z,5.7
2019-03-27T08:26:21.760Z,5.7
2019-03-27T08:27:05.487Z,5.8
2019-03-27T08:29:58.726Z,5.8
2019-03-27T08:30:50.796Z,5.8
2019-03-27T08:31:42.564Z,5.9
2019-03-27T08:32:37.489Z,5.9
2019-03-27T08:33:26.467Z,5.9
2019-03-27T08:34:18.584Z,5.9
2019-03-27T08:35:14.409Z,6
2019-03-27T08:36:18.465Z,6
2019-03-27T08:39:38.816Z,6.1
2019-03-27T08:40:28.796Z,6.2
2019-03-27T08:41:21.225Z,6.2
2019-03-27T08:42:11.250Z,6.2
2019-03-27T08:43:20.911Z,6.2
2019-03-27T08:44:02.133Z,6.2
2019-03-27T08:44:52.698Z,6.2
2019-03-27T08:45:43.211Z,6.3
2019-03-27T08:46:39.953Z,6.3
2019-03-27T08:47:29.882Z,6.3
2019-03-27T08:48:19.953Z,6.3
2019-03-27T08:49:21.072Z,6.4
2019-03-27T08:49:59.912Z,6.4
2019-03-27T08:50:50.373Z,6.4
2019-03-27T08:51:39.975Z,6.4
2019-03-27T08:52:29.925Z,6.5
2019-03-27T08:53:20.160Z,6.5
2019-03-27T08:54:09.969Z,6.5
2019-03-27T08:54:59.947Z,6.5
2019-03-27T08:55:50.333Z,6.5
2019-03-27T08:56:40.208Z,6.6
2019-03-27T08:57:30.155Z,6.6
2019-03-27T08:58:21.301Z,6.6
2019-03-27T08:59:10.950Z,6.7
2019-03-27T09:00:02.618Z,6.7
2019-03-27T09:00:50.726Z,6.7
2019-03-27T09:01:40.250Z,6.7
2019-03-27T09:02:30.235Z,6.7
2019-03-27T09:03:25.219Z,6.7
2019-03-27T09:04:10.289Z,6.7
2019-03-27T09:05:00.652Z,6.8
2019-03-27T09:05:54.342Z,6.8
2019-03-27T09:06:43.290Z,6.8
2019-03-27T09:07:33.539Z,6.8
2019-03-27T09:08:23.346Z,6.9
2019-03-27T09:09:13.038Z,6.9
2019-03-27T09:10:03.898Z,6.9
2019-03-27T09:10:53.855Z,7
2019-03-27T09:11:44.017Z,7
2019-03-27T09:12:33.980Z,7
2019-03-27T09:13:32.687Z,7
2019-03-27T09:14:15.459Z,7.1
2019-03-27T09:15:05.625Z,7.1
2019-03-27T09:15:55.670Z,7.2
2019-03-27T09:16:47.316Z,7.2
2019-03-27T09:17:38.137Z,7.3
2019-03-27T09:18:25.798Z,7.3
2019-03-27T09:19:15.661Z,7.4
2019-03-27T09:20:05.748Z,7.4
2019-03-27T09:20:56.085Z,7.4
2019-03-27T09:21:46.027Z,7.5
2019-03-27T09:22:36.007Z,7.5
2019-03-27T09:23:26.338Z,7.6
2019-03-27T09:24:15.966Z,7.6
2019-03-27T09:25:06.301Z,7.7
2019-03-27T09:25:57.107Z,7.7
2019-03-27T09:26:47.113Z,7.7
2019-03-27T09:27:41.034Z,7.7
2019-03-27T09:28:28.319Z,7.7
2019-03-27T09:29:17.926Z,7.7
2019-03-27T09:30:13.065Z,7.7
2019-03-27T09:31:04.066Z,7.7
2019-03-27T09:31:54.287Z,7.7
2019-03-27T09:32:44.375Z,7.7
2019-03-27T09:33:40.114Z,7.8
2019-03-27T09:34:24.362Z,7.7
2019-03-27T09:35:14.425Z,7.7
2019-03-27T09:36:04.750Z,7.8
2019-03-27T09:36:55.150Z,7.8
2019-03-27T09:37:45.156Z,7.9
2019-03-27T09:38:35.102Z,7.9
2019-03-27T09:39:25.214Z,7.9
2019-03-27T09:40:15.162Z,7.9
2019-03-27T09:41:05.129Z,7.9
2019-03-27T09:41:55.670Z,7.9
2019-03-27T09:42:45.652Z,7.9
2019-03-27T09:43:35.654Z,7.9
2019-03-27T09:44:26.499Z,7.9
2019-03-27T09:45:16.733Z,8
2019-03-27T09:46:06.727Z,8
2019-03-27T09:46:56.841Z,8.1
2019-03-27T09:47:49.571Z,8.2
2019-03-27T09:48:36.943Z,8.2
2019-03-27T09:49:33.684Z,8.2
2019-03-27T09:50:17.809Z,8.2
2019-03-27T09:51:07.912Z,8.2
2019-03-27T09:51:57.761Z,8.2
2019-03-27T09:52:47.808Z,8.2
2019-03-27T09:53:41.428Z,8.2
2019-03-27T09:54:27.962Z,8.2
2019-03-27T09:55:18.824Z,8.2
2019-03-27T09:56:18.263Z,8.1
2019-03-27T09:56:58.153Z,8.1
2019-03-27T09:57:48.331Z,8.1
2019-03-27T09:58:39.821Z,8.1
2019-03-27T09:59:32.974Z,8.1
2019-03-27T10:00:20.344Z,8.1
2019-03-27T10:01:10.352Z,8.1
2019-03-27T10:02:00.582Z,8.1
2019-03-27T10:02:50.370Z,8.1
2019-03-27T10:03:40.378Z,8.1
2019-03-27T10:04:30.500Z,8.1
2019-03-27T10:05:20.593Z,8.1
2019-03-27T10:06:10.629Z,8.1
2019-03-27T10:07:01.452Z,8.2
2019-03-27T10:07:50.577Z,8.2
2019-03-27T10:08:40.580Z,8.2
2019-03-27T10:09:30.782Z,8.2
2019-03-27T10:10:20.584Z,8.2
2019-03-27T10:11:15.951Z,8.2
2019-03-27T10:12:00.844Z,8.2
2019-03-27T10:12:50.740Z,8.2
2019-03-27T10:13:40.690Z,8.2
2019-03-27T10:14:30.596Z,8.2
2019-03-27T10:15:20.581Z,8.3
2019-03-27T10:16:10.641Z,8.3
2019-03-27T10:17:00.601Z,8.3
2019-03-27T10:17:50.668Z,8.3
2019-03-27T10:18:40.603Z,8.3
2019-03-27T10:19:30.683Z,8.3
2019-03-27T10:20:20.622Z,8.3
2019-03-27T10:21:10.656Z,8.4
2019-03-27T10:22:00.610Z,8.4
2019-03-27T10:22:50.653Z,8.4
2019-03-27T10:23:40.801Z,8.4
2019-03-27T10:24:30.625Z,8.4
2019-03-27T10:25:21.345Z,8.5
2019-03-27T10:26:11.314Z,8.5
2019-03-27T10:27:01.476Z,8.5
2019-03-27T10:27:51.430Z,8.5
2019-03-27T10:28:41.250Z,8.6
2019-03-27T10:29:31.240Z,8.6
2019-03-27T10:30:21.323Z,8.6
2019-03-27T10:31:11.545Z,8.6
2019-03-27T10:32:01.455Z,8.7
2019-03-27T10:32:51.280Z,8.7
2019-03-27T10:33:41.280Z,8.7
2019-03-27T10:34:31.309Z,8.7
2019-03-27T10:35:21.388Z,8.7
2019-03-27T10:36:11.293Z,8.7
2019-03-27T10:37:01.683Z,8.8
2019-03-27T10:37:51.273Z,8.8
2019-03-27T10:38:41.801Z,8.8
2019-03-27T10:39:31.275Z,8.9
2019-03-27T10:40:21.563Z,8.9
2019-03-27T10:41:11.308Z,8.9
2019-03-27T10:42:01.742Z,8.9
2019-03-27T10:42:51.321Z,8.9
2019-03-27T10:43:42.058Z,8.9
2019-03-27T10:44:31.319Z,8.9
2019-03-27T10:45:22.390Z,9
2019-03-27T10:46:12.239Z,9
2019-03-27T10:47:02.275Z,9
2019-03-27T10:47:52.308Z,9
2019-03-27T10:48:52.178Z,9
2019-03-27T10:49:34.348Z,9
2019-03-27T10:50:22.248Z,9
2019-03-27T10:51:12.286Z,9.1
2019-03-27T10:52:02.268Z,9.1
2019-03-27T10:52:52.256Z,9.1
2019-03-27T10:53:42.590Z,9
2019-03-27T10:54:32.335Z,9
2019-03-27T10:55:22.248Z,9
2019-03-27T10:56:26.846Z,9
2019-03-27T10:57:02.248Z,9
2019-03-27T10:57:52.257Z,9.1
2019-03-27T10:58:42.510Z,9.1
2019-03-27T10:59:32.243Z,9.2
2019-03-27T11:00:22.299Z,9.2
2019-03-27T11:01:12.250Z,9.3
2019-03-27T11:02:02.217Z,9.4
2019-03-27T11:02:52.347Z,9.4
2019-03-27T11:03:46.309Z,9.5
2019-03-27T11:04:32.282Z,9.5
2019-03-27T11:05:22.318Z,9.5
2019-03-27T11:06:12.458Z,9.4
2019-03-27T11:07:02.286Z,9.5
2019-03-27T11:07:52.381Z,9.5
2019-03-27T11:08:44.043Z,9.6
2019-03-27T11:09:32.280Z,9.6
2019-03-27T11:10:22.243Z,9.7
2019-03-27T11:11:12.288Z,9.8
2019-03-27T11:12:02.270Z,9.9
2019-03-27T11:12:52.331Z,9.9
2019-03-27T11:13:42.277Z,9.8
2019-03-27T11:14:38.004Z,9.7
2019-03-27T11:15:22.305Z,9.7
2019-03-27T11:16:12.307Z,9.6
2019-03-27T11:17:02.275Z,9.6
2019-03-27T11:17:52.299Z,9.7
2019-03-27T11:18:42.271Z,9.8
2019-03-27T11:19:33.613Z,9.9
2019-03-27T11:20:30.613Z,10
2019-03-27T11:21:12.347Z,10.1
2019-03-27T11:22:02.327Z,10.2
2019-03-27T11:22:52.295Z,10.2
2019-03-27T11:23:42.566Z,10.3
2019-03-27T11:24:32.322Z,10.3
2019-03-27T11:25:22.265Z,10.3
2019-03-27T11:26:12.336Z,10.3
2019-03-27T11:27:02.301Z,10.3
2019-03-27T11:27:53.598Z,10.3
2019-03-27T11:28:42.381Z,10.3
2019-03-27T11:29:32.294Z,10.3
2019-03-27T11:30:22.296Z,10.3
2019-03-27T11:31:12.290Z,10.3
2019-03-27T11:32:02.300Z,10.3
2019-03-27T11:32:52.363Z,10.3
2019-03-27T11:33:42.326Z,10.2
2019-03-27T11:34:32.327Z,10.2
2019-03-27T11:35:22.336Z,10.2
2019-03-27T11:36:12.305Z,10.2
2019-03-27T11:37:02.298Z,10.2
2019-03-27T11:37:53.662Z,10.1
2019-03-27T11:38:44.120Z,10.1
2019-03-27T11:39:34.117Z,10.1
2019-03-27T11:40:24.198Z,10.1
2019-03-27T11:41:14.099Z,10.1
2019-03-27T11:42:04.108Z,10.1
2019-03-27T11:42:54.141Z,10.1
2019-03-27T11:43:54.077Z,10.1
2019-03-27T11:44:34.114Z,10
2019-03-27T11:45:24.132Z,10
2019-03-27T11:46:14.117Z,10
2019-03-27T11:47:04.183Z,10
2019-03-27T11:47:54.777Z,10
2019-03-27T11:48:44.102Z,10
2019-03-27T11:49:34.078Z,10
2019-03-27T11:50:24.301Z,10
2019-03-27T11:51:14.756Z,10
2019-03-27T11:52:04.223Z,10.1
2019-03-27T11:52:54.978Z,10.1
2019-03-27T11:53:44.634Z,10.2
2019-03-27T11:54:35.069Z,10.2
2019-03-27T11:55:24.602Z,10.2
2019-03-27T11:56:33.829Z,10.2
2019-03-27T11:57:04.710Z,10.2